Terminal Aerodrome Forecast
Issued by NWS

Home | Current Version | Previous Version | Text Only | Print | Product List | Glossary On
Versions: 1 2 3 4 5 6 7 8 9 10 11 12 13 14 15 16 17 18 19 20 21 22 23 24 25 26 27 28 29 30 31 32 33 34
000
FTUS41 KGYX 270857 AAA
TAFMHT
TAF AMD
KMHT 270857Z 2709/2806 VRB03KT P6SM SCT250
     FM271500 16004KT P6SM BKN190
     FM271700 13008KT 5SM -RA OVC025
     FM272000 04005KT 1 1/2SM -RA OVC007
     FM280200 04003KT 4SM BR OVC007=

USA.gov is the U.S. government's official web portal to all federal, state and local government web resources and services.